Aérodrome :
LOGIN :

S'inscrire | Disclaimer

   EN    FR    IT 

 










Légende :    VFR   VFR Marginal   IFR   IFR Intensif   IFR Très Intensif
Visi : 
Plafond : 
>= 8 km
>= 3000ft
5 à 8 km
1000 à 3000 ft
1500m à 5 km
500 à 1000 ft
800 à 1500m
200 à 500 ft
< 800m
< 200 ft
Symboles :   Orages  Brouillard  Fortes neiges  Fortes précipitations  Vent > 20 kt
SIGMETs :   Divers  Orages  Givrage  Turbulence  Onde Orograph.  Cendres Volcan.






- Altitude de l'aérodrome : 219 ft
- Code IATA : DNR


LFRD - Dinard

DERNIER METAR :
  • 010930Z AUTO 10007KT 9999 // NSC 07/02 Q1027

METARs EXPIRÉS :
  • 010900Z AUTO 09006KT CAVOK 06/02 Q1027 NOSIG
  • 010830Z AUTO 08007KT CAVOK 05/02 Q1027 NOSIG
  • 010800Z AUTO 09007KT CAVOK 04/02 Q1027 NOSIG
  • 010730Z AUTO 09008KT CAVOK 03/01 Q1027 NOSIG
  • 010700Z AUTO 10008KT CAVOK 03/01 Q1027 NOSIG

TAF TAF LFRD
Valide du 01 à 06h jusqu'au 02 à 06h UTC


010500Z 0106/0206 09006KT CAVOK
PROB30
TEMPO 0106/0107 4000 BR
BECMG 0121/0123 2000 BR
PROB40
TEMPO 0200/0206 0500 FG
ATIS : +33 2 99 16 81 50



MET'MAP, la Météo Aéronautique d'un coup d'oeil ! - Copyright ORBIFLY Décembre 2007 - Disclaimer

ORBIFLY MET'MAP TEAM :

Programmation & Développement : Alexandra Zaïnal
Sur une idée originale de : Baudouin d'Aumeries
Assistance à la programmation : Marc-Olivier Méhu
Soutien technique & logistique : Manuel Goepfert

Contact : metmap@orbifly.com




SOURCES & CREDITS :

   NOAA